createdAt,value
2017-09-06T00:00:47.760Z,0.00
2017-09-06T00:01:47.788Z,0.00
2017-09-06T00:02:47.827Z,0.00
2017-09-06T00:03:47.872Z,0.00
2017-09-06T00:04:47.934Z,0.00
2017-09-06T00:05:47.951Z,0.00
2017-09-06T00:06:48.272Z,0.00
2017-09-06T00:07:48.029Z,0.00
2017-09-06T00:08:48.164Z,0.00
2017-09-06T00:09:48.082Z,0.00
2017-09-06T00:10:48.121Z,0.00
2017-09-06T00:11:48.171Z,0.00
2017-09-06T00:12:48.217Z,0.00
2017-09-06T00:13:48.545Z,0.00
2017-09-06T00:14:48.271Z,0.00
2017-09-06T00:15:48.308Z,0.00
2017-09-06T00:16:48.359Z,0.00
2017-09-06T00:17:48.395Z,0.00
2017-09-06T00:18:48.415Z,0.00
2017-09-06T00:19:48.452Z,0.00
2017-09-06T00:20:48.822Z,0.00
2017-09-06T00:21:48.524Z,0.00
2017-09-06T00:22:48.558Z,0.00
2017-09-06T00:23:48.663Z,0.00
2017-09-06T00:24:48.633Z,0.00
2017-09-06T00:25:48.684Z,0.00
2017-09-06T00:26:48.727Z,0.00
2017-09-06T00:27:49.008Z,0.00
2017-09-06T00:28:48.779Z,0.00
2017-09-06T00:29:48.835Z,0.00
2017-09-06T00:30:48.886Z,0.00
2017-09-06T00:31:48.896Z,0.00
2017-09-06T00:32:48.923Z,0.00
2017-09-06T00:33:48.958Z,0.00
2017-09-06T00:34:49.247Z,0.00
2017-09-06T00:35:49.034Z,0.00
2017-09-06T00:36:49.136Z,0.00
2017-09-06T00:37:49.129Z,0.00
2017-09-06T00:38:49.169Z,0.00
2017-09-06T00:39:49.175Z,0.00
2017-09-06T00:40:49.213Z,0.00
2017-09-06T00:41:49.521Z,0.00
2017-09-06T00:42:49.288Z,0.00
2017-09-06T00:43:49.343Z,0.00
2017-09-06T00:44:49.389Z,0.00
2017-09-06T00:45:49.422Z,0.00
2017-09-06T00:46:49.436Z,0.00
2017-09-06T00:47:49.475Z,0.00
2017-09-06T00:48:49.779Z,0.00
2017-09-06T00:49:49.557Z,0.00
2017-09-06T00:50:49.610Z,0.00
2017-09-06T00:51:49.672Z,0.00
2017-09-06T00:52:49.716Z,0.00
2017-09-06T00:53:49.711Z,0.00
2017-09-06T00:54:49.749Z,0.00
2017-09-06T00:55:50.068Z,0.00
2017-09-06T00:56:49.793Z,0.00
2017-09-06T00:57:49.830Z,0.00
2017-09-06T00:58:49.869Z,0.00
2017-09-06T00:59:49.909Z,0.00
2017-09-06T01:00:49.966Z,0.00
2017-09-06T01:01:50.282Z,0.00
2017-09-06T01:02:50.277Z,0.00
2017-09-06T01:03:50.065Z,0.00
2017-09-06T01:04:50.102Z,0.00
2017-09-06T01:05:50.155Z,0.00
2017-09-06T01:06:50.165Z,0.00
2017-09-06T01:07:50.445Z,0.00
2017-09-06T01:08:50.306Z,0.00
2017-09-06T01:09:50.265Z,0.00
2017-09-06T01:10:50.336Z,0.00
2017-09-06T01:11:50.345Z,0.00
2017-09-06T01:12:50.389Z,0.00
2017-09-06T01:13:50.823Z,0.00
2017-09-06T01:14:50.447Z,0.00
2017-09-06T01:15:50.503Z,0.00
2017-09-06T01:16:50.548Z,0.00
2017-09-06T01:17:50.635Z,0.00
2017-09-06T01:18:50.622Z,0.00
2017-09-06T01:19:50.935Z,0.00
2017-09-06T01:20:50.684Z,0.00
2017-09-06T01:21:50.709Z,0.00
2017-09-06T01:22:50.773Z,0.00
2017-09-06T01:23:50.845Z,0.00
2017-09-06T01:24:50.841Z,0.00
2017-09-06T01:25:51.099Z,0.00
2017-09-06T01:26:50.955Z,0.00
2017-09-06T01:27:50.945Z,0.00
2017-09-06T01:28:51.022Z,0.00
2017-09-06T01:29:51.047Z,0.00
2017-09-06T01:30:51.039Z,0.00
2017-09-06T01:31:51.325Z,0.00
2017-09-06T01:32:51.139Z,0.00
2017-09-06T01:33:51.180Z,0.00
2017-09-06T01:34:51.180Z,0.00
2017-09-06T01:35:51.217Z,0.00
2017-09-06T01:36:51.309Z,0.00
2017-09-06T01:37:51.537Z,0.00
2017-09-06T01:38:51.340Z,0.00
2017-09-06T01:39:51.384Z,0.00
2017-09-06T01:40:51.397Z,0.00
2017-09-06T01:41:51.437Z,0.00
2017-09-06T01:42:51.468Z,0.00
2017-09-06T01:43:51.773Z,0.00
2017-09-06T01:44:51.563Z,0.00
2017-09-06T01:45:51.584Z,0.00
2017-09-06T01:46:51.633Z,0.00
2017-09-06T01:47:51.653Z,0.00
2017-09-06T01:48:51.695Z,0.00
2017-09-06T01:49:51.973Z,0.00
2017-09-06T01:50:51.777Z,0.00
2017-09-06T01:51:51.799Z,0.00
2017-09-06T01:52:51.853Z,0.00
2017-09-06T01:53:51.867Z,0.00
2017-09-06T01:54:51.930Z,0.00
2017-09-06T01:55:52.213Z,0.00
2017-09-06T01:56:51.979Z,0.00
2017-09-06T01:57:52.015Z,0.00
2017-09-06T01:58:52.072Z,0.00
2017-09-06T01:59:52.105Z,0.00
2017-09-06T02:00:52.126Z,0.00
2017-09-06T02:01:52.415Z,0.00
2017-09-06T02:02:52.206Z,0.00
2017-09-06T02:03:52.251Z,0.00
2017-09-06T02:04:52.286Z,0.00
2017-09-06T02:05:52.326Z,0.00
2017-09-06T02:06:52.360Z,0.00
2017-09-06T02:07:52.681Z,0.00
2017-09-06T02:08:52.450Z,0.00
2017-09-06T02:09:52.450Z,0.00
2017-09-06T02:10:52.554Z,0.00
2017-09-06T02:11:52.540Z,0.00
2017-09-06T02:12:52.580Z,0.00
2017-09-06T02:13:52.919Z,0.00
2017-09-06T02:14:52.652Z,0.00
2017-09-06T02:15:52.677Z,0.00
2017-09-06T02:16:52.725Z,0.00
2017-09-06T02:17:52.765Z,0.00
2017-09-06T02:18:52.800Z,0.00
2017-09-06T02:19:52.833Z,0.00
2017-09-06T02:20:53.170Z,0.00
2017-09-06T02:21:52.906Z,0.00
2017-09-06T02:22:52.933Z,0.00
2017-09-06T02:23:52.982Z,0.00
2017-09-06T02:24:53.067Z,0.00
2017-09-06T02:25:53.055Z,0.00
2017-09-06T02:26:53.098Z,0.00
2017-09-06T02:27:53.410Z,0.00
2017-09-06T02:28:53.148Z,0.00
2017-09-06T02:29:53.207Z,0.00
2017-09-06T02:30:53.234Z,0.00
2017-09-06T02:31:53.286Z,0.00
2017-09-06T02:32:53.308Z,0.00
2017-09-06T02:33:53.344Z,0.00
2017-09-06T02:34:53.665Z,0.00
2017-09-06T02:35:53.453Z,0.00
2017-09-06T02:36:53.455Z,0.00
2017-09-06T02:37:53.468Z,0.00
2017-09-06T02:38:53.563Z,0.00
2017-09-06T02:39:53.541Z,0.00
2017-09-06T02:40:53.598Z,0.00
2017-09-06T02:41:54.041Z,0.00
2017-09-06T02:42:53.656Z,0.00
2017-09-06T02:43:53.720Z,0.00
2017-09-06T02:44:53.758Z,0.00
2017-09-06T02:45:53.785Z,0.00
2017-09-06T02:46:53.807Z,0.00
2017-09-06T02:47:54.055Z,0.00
2017-09-06T02:48:54.175Z,0.00
2017-09-06T02:49:53.960Z,0.00
2017-09-06T02:50:53.963Z,0.00
2017-09-06T02:51:53.996Z,0.00
2017-09-06T02:52:54.031Z,0.00
2017-09-06T02:53:54.114Z,0.00
2017-09-06T02:54:54.144Z,0.00
2017-09-06T02:55:54.387Z,0.00
2017-09-06T02:56:54.160Z,0.00
2017-09-06T02:57:54.223Z,0.00
2017-09-06T02:58:54.251Z,0.00
2017-09-06T02:59:54.328Z,0.00
2017-09-06T03:00:54.321Z,0.00
2017-09-06T03:01:54.369Z,0.00
2017-09-06T03:02:54.690Z,0.00
2017-09-06T03:03:54.425Z,0.00
2017-09-06T03:04:54.478Z,0.00
2017-09-06T03:05:54.485Z,0.00
2017-09-06T03:06:54.520Z,0.00
2017-09-06T03:07:54.576Z,0.00
2017-09-06T03:08:54.612Z,0.00
2017-09-06T03:09:54.929Z,0.00
2017-09-06T03:10:54.683Z,0.00
2017-09-06T03:11:54.709Z,0.00
2017-09-06T03:12:54.748Z,0.00
2017-09-06T03:13:54.774Z,0.00
2017-09-06T03:14:54.834Z,0.00
2017-09-06T03:15:54.863Z,0.00
2017-09-06T03:16:55.205Z,0.00
2017-09-06T03:17:54.919Z,0.00
2017-09-06T03:18:54.962Z,0.00
2017-09-06T03:19:55.094Z,0.00
2017-09-06T03:20:55.048Z,0.00
2017-09-06T03:21:55.074Z,0.00
2017-09-06T03:22:55.119Z,0.00
2017-09-06T03:23:55.440Z,0.00
2017-09-06T03:24:55.201Z,0.00
2017-09-06T03:25:55.225Z,0.00
2017-09-06T03:26:55.268Z,0.00
2017-09-06T03:27:55.281Z,0.00
2017-09-06T03:28:55.338Z,0.00
2017-09-06T03:29:55.402Z,0.00
2017-09-06T03:30:55.662Z,0.00
2017-09-06T03:31:55.551Z,0.00
2017-09-06T03:32:55.468Z,0.00
2017-09-06T03:33:55.521Z,0.00
2017-09-06T03:34:55.556Z,0.00
2017-09-06T03:35:55.589Z,0.00
2017-09-06T03:36:55.622Z,0.00
2017-09-06T03:37:56.028Z,0.00
2017-09-06T03:38:55.691Z,0.00
2017-09-06T03:39:55.716Z,0.00
2017-09-06T03:40:55.761Z,0.00
2017-09-06T03:41:55.809Z,0.00
2017-09-06T03:42:55.852Z,0.00
2017-09-06T03:43:56.132Z,0.00
2017-09-06T03:44:55.915Z,0.00
2017-09-06T03:45:55.948Z,0.00
2017-09-06T03:46:55.993Z,0.00
2017-09-06T03:47:56.050Z,0.00
2017-09-06T03:48:56.060Z,0.00
2017-09-06T03:49:56.461Z,0.00
2017-09-06T03:50:56.137Z,0.00
2017-09-06T03:51:56.167Z,0.00
2017-09-06T03:52:56.209Z,0.00
2017-09-06T03:53:56.225Z,0.00
2017-09-06T03:54:56.264Z,0.00
2017-09-06T03:55:56.564Z,0.00
2017-09-06T03:56:56.383Z,0.00
2017-09-06T03:57:56.385Z,0.00
2017-09-06T03:58:56.409Z,0.00
2017-09-06T03:59:56.503Z,0.00
2017-09-06T04:00:56.480Z,0.00
2017-09-06T04:01:56.815Z,0.00
2017-09-06T04:02:56.551Z,0.00
2017-09-06T04:03:56.638Z,0.00
2017-09-06T04:04:56.625Z,0.00
2017-09-06T04:05:56.668Z,0.00
2017-09-06T04:06:56.722Z,0.00
2017-09-06T04:07:57.005Z,0.00
2017-09-06T04:08:56.823Z,0.00
2017-09-06T04:09:56.825Z,0.00
2017-09-06T04:10:56.855Z,0.00
2017-09-06T04:11:56.896Z,0.00
2017-09-06T04:12:56.926Z,0.00
2017-09-06T04:13:57.220Z,0.00
2017-09-06T04:14:57.003Z,0.00
2017-09-06T04:15:57.052Z,0.00
2017-09-06T04:16:57.216Z,0.00
2017-09-06T04:17:57.086Z,0.00
2017-09-06T04:18:57.357Z,0.00
2017-09-06T04:19:57.497Z,0.00
2017-09-06T04:20:57.256Z,0.00
2017-09-06T04:21:57.282Z,0.00
2017-09-06T04:22:57.285Z,0.00
2017-09-06T04:23:57.342Z,0.00
2017-09-06T04:24:57.350Z,0.00
2017-09-06T04:25:57.645Z,0.00
2017-09-06T04:26:57.461Z,0.00
2017-09-06T04:27:57.447Z,0.00
2017-09-06T04:28:57.507Z,0.00
2017-09-06T04:29:57.549Z,0.00
2017-09-06T04:30:57.570Z,0.00
2017-09-06T04:31:57.843Z,0.00
2017-09-06T04:32:57.760Z,0.00
2017-09-06T04:33:57.886Z,0.00
2017-09-06T04:34:57.719Z,0.00
2017-09-06T04:35:57.759Z,0.00
2017-09-06T04:36:57.785Z,0.00
2017-09-06T04:37:58.079Z,0.00
2017-09-06T04:38:57.889Z,0.00
2017-09-06T04:39:58.047Z,0.00
2017-09-06T04:40:57.916Z,0.00
2017-09-06T04:41:57.965Z,0.00
2017-09-06T04:42:58.052Z,0.00
2017-09-06T04:43:58.327Z,0.00
2017-09-06T04:44:58.077Z,0.00
2017-09-06T04:45:58.099Z,0.00
2017-09-06T04:46:58.152Z,0.00
2017-09-06T04:47:58.183Z,0.00
2017-09-06T04:48:58.237Z,0.00
2017-09-06T04:49:58.544Z,0.00
2017-09-06T04:50:58.283Z,0.00
2017-09-06T04:51:58.328Z,0.00
2017-09-06T04:52:58.369Z,0.00
2017-09-06T04:53:58.398Z,0.00
2017-09-06T04:54:58.420Z,0.00
2017-09-06T04:55:58.962Z,0.00
2017-09-06T04:56:58.502Z,0.00
2017-09-06T04:57:58.552Z,0.00
2017-09-06T04:58:58.563Z,0.00
2017-09-06T04:59:58.622Z,0.00
2017-09-06T05:00:58.633Z,0.00
2017-09-06T05:01:58.993Z,0.00
2017-09-06T05:02:58.752Z,0.00
2017-09-06T05:03:58.759Z,0.00
2017-09-06T05:04:58.803Z,5.63
2017-09-06T05:05:58.831Z,5.63
2017-09-06T05:06:58.854Z,5.63
2017-09-06T05:07:58.887Z,5.63
2017-09-06T05:08:59.231Z,5.63
2017-09-06T05:09:58.977Z,5.63
2017-09-06T05:10:59.012Z,5.63
2017-09-06T05:11:59.032Z,5.63
2017-09-06T05:12:59.068Z,5.63
2017-09-06T05:13:59.120Z,5.63
2017-09-06T05:14:59.155Z,5.63
2017-09-06T05:15:59.531Z,11.25
2017-09-06T05:16:59.216Z,11.25
2017-09-06T05:17:59.340Z,11.25
2017-09-06T05:18:59.289Z,11.25
2017-09-06T05:19:59.341Z,11.25
2017-09-06T05:20:59.499Z,11.25
2017-09-06T05:21:59.387Z,11.25
2017-09-06T05:22:59.685Z,11.25
2017-09-06T05:23:59.495Z,11.25
2017-09-06T05:24:59.498Z,11.25
2017-09-06T05:25:59.682Z,5.63
2017-09-06T05:26:59.585Z,5.63
2017-09-06T05:27:59.631Z,5.63
2017-09-06T05:28:59.661Z,5.63
2017-09-06T05:29:59.948Z,5.63
2017-09-06T05:30:59.755Z,11.25
2017-09-06T05:31:59.769Z,11.25
2017-09-06T05:32:59.785Z,11.25
2017-09-06T05:33:59.817Z,11.25
2017-09-06T05:34:59.876Z,11.25
2017-09-06T05:35:59.890Z,16.88
2017-09-06T05:37:00.268Z,16.88
2017-09-06T05:37:59.980Z,16.88
2017-09-06T05:39:00.017Z,16.88
2017-09-06T05:40:00.052Z,16.88
2017-09-06T05:41:00.073Z,16.88
2017-09-06T05:42:00.126Z,11.25
2017-09-06T05:43:00.141Z,11.25
2017-09-06T05:44:00.450Z,11.25
2017-09-06T05:45:00.231Z,11.25
2017-09-06T05:46:00.269Z,16.88
2017-09-06T05:47:00.389Z,11.25
2017-09-06T05:48:00.338Z,16.88
2017-09-06T05:49:00.379Z,16.88
2017-09-06T05:50:00.393Z,16.88
2017-09-06T05:51:00.729Z,22.50
2017-09-06T05:52:00.467Z,22.50
2017-09-06T05:53:00.518Z,22.50
2017-09-06T05:54:00.540Z,22.50
2017-09-06T05:55:00.594Z,22.50
2017-09-06T05:56:00.627Z,22.50
2017-09-06T05:57:00.664Z,16.88
2017-09-06T05:58:00.981Z,16.88
2017-09-06T05:59:00.723Z,11.25
2017-09-06T06:00:00.773Z,11.25
2017-09-06T06:01:00.795Z,16.88
2017-09-06T06:02:00.826Z,11.25
2017-09-06T06:03:00.876Z,16.88
2017-09-06T06:04:00.916Z,16.88
2017-09-06T06:05:01.234Z,22.50
2017-09-06T06:06:00.987Z,16.88
2017-09-06T06:07:01.118Z,16.88
2017-09-06T06:08:01.042Z,16.88
2017-09-06T06:09:01.078Z,28.13
2017-09-06T06:10:01.116Z,28.13
2017-09-06T06:11:01.153Z,28.13
2017-09-06T06:12:01.471Z,28.13
2017-09-06T06:13:01.221Z,28.13
2017-09-06T06:14:01.259Z,28.13
2017-09-06T06:15:01.311Z,33.75
2017-09-06T06:16:01.340Z,28.13
2017-09-06T06:17:01.386Z,28.13
2017-09-06T06:18:01.600Z,33.75
2017-09-06T06:19:01.718Z,33.75
2017-09-06T06:20:01.522Z,33.75
2017-09-06T06:21:01.512Z,33.75
2017-09-06T06:22:01.559Z,33.75
2017-09-06T06:23:01.579Z,33.75
2017-09-06T06:24:01.634Z,33.75
2017-09-06T06:25:01.665Z,33.75
2017-09-06T06:26:01.957Z,33.75
2017-09-06T06:27:01.741Z,33.75
2017-09-06T06:28:01.764Z,39.38
2017-09-06T06:29:02.124Z,39.38
2017-09-06T06:30:01.831Z,39.38
2017-09-06T06:31:01.883Z,39.38
2017-09-06T06:32:02.183Z,33.75
2017-09-06T06:33:02.031Z,33.75
2017-09-06T06:34:01.996Z,33.75
2017-09-06T06:35:02.060Z,33.75
2017-09-06T06:36:02.064Z,33.75
2017-09-06T06:37:02.104Z,33.75
2017-09-06T06:38:02.762Z,33.75
2017-09-06T06:39:02.260Z,45.00
2017-09-06T06:40:02.245Z,50.63
2017-09-06T06:41:02.244Z,39.38
2017-09-06T06:42:02.262Z,50.63
2017-09-06T06:43:02.318Z,50.63
2017-09-06T06:44:02.594Z,45.00
2017-09-06T06:45:02.394Z,45.00
2017-09-06T06:46:02.423Z,45.00
2017-09-06T06:47:02.444Z,50.63
2017-09-06T06:48:02.517Z,50.63
2017-09-06T06:49:02.519Z,50.63
2017-09-06T06:50:02.870Z,50.63
2017-09-06T06:51:02.613Z,50.63
2017-09-06T06:52:02.681Z,39.38
2017-09-06T06:53:02.777Z,28.13
2017-09-06T06:54:03.199Z,22.50
2017-09-06T06:55:02.757Z,16.88
2017-09-06T06:56:03.100Z,11.25
2017-09-06T06:57:02.821Z,11.25
2017-09-06T06:58:02.842Z,11.25
2017-09-06T06:59:02.900Z,16.88
2017-09-06T07:00:02.932Z,11.25
2017-09-06T07:01:02.968Z,22.50
2017-09-06T07:02:03.232Z,28.13
2017-09-06T07:03:03.044Z,39.38
2017-09-06T07:04:03.060Z,22.50
2017-09-06T07:05:03.121Z,22.50
2017-09-06T07:06:03.129Z,28.13
2017-09-06T07:07:03.172Z,33.75
2017-09-06T07:08:03.471Z,33.75
2017-09-06T07:09:03.260Z,45.00
2017-09-06T07:10:03.295Z,56.25
2017-09-06T07:11:03.313Z,61.88
2017-09-06T07:12:03.374Z,61.88
2017-09-06T07:13:03.494Z,61.88
2017-09-06T07:14:03.732Z,67.50
2017-09-06T07:15:03.477Z,67.50
2017-09-06T07:16:03.502Z,73.13
2017-09-06T07:17:03.523Z,78.75
2017-09-06T07:18:03.626Z,84.38
2017-09-06T07:19:03.616Z,90.00
2017-09-06T07:20:03.941Z,95.63
2017-09-06T07:21:03.670Z,95.63
2017-09-06T07:22:03.725Z,95.63
2017-09-06T07:23:03.750Z,95.63
2017-09-06T07:24:03.799Z,90.00
2017-09-06T07:25:03.826Z,95.63
2017-09-06T07:26:04.154Z,95.63
2017-09-06T07:27:03.887Z,101.25
2017-09-06T07:28:03.923Z,106.88
2017-09-06T07:29:03.957Z,112.50
2017-09-06T07:30:03.999Z,112.50
2017-09-06T07:31:04.038Z,112.50
2017-09-06T07:32:04.395Z,112.50
2017-09-06T07:33:04.101Z,112.50
2017-09-06T07:34:04.159Z,112.50
2017-09-06T07:35:04.194Z,101.25
2017-09-06T07:36:04.215Z,84.38
2017-09-06T07:37:04.267Z,78.75
2017-09-06T07:38:04.584Z,84.38
2017-09-06T07:39:04.320Z,95.63
2017-09-06T07:40:04.384Z,90.00
2017-09-06T07:41:04.410Z,78.75
2017-09-06T07:42:04.447Z,78.75
2017-09-06T07:43:04.466Z,67.50
2017-09-06T07:44:04.780Z,50.63
2017-09-06T07:45:04.539Z,39.38
2017-09-06T07:46:04.574Z,39.38
2017-09-06T07:47:04.631Z,39.38
2017-09-06T07:48:04.646Z,39.38
2017-09-06T07:49:04.703Z,56.25
2017-09-06T07:50:04.989Z,73.13
2017-09-06T07:51:04.771Z,90.00
2017-09-06T07:52:04.803Z,67.50
2017-09-06T07:53:04.826Z,84.38
2017-09-06T07:54:04.883Z,84.38
2017-09-06T07:55:04.937Z,73.13
2017-09-06T07:56:04.952Z,73.13
2017-09-06T07:57:05.241Z,50.63
2017-09-06T07:58:05.012Z,61.88
2017-09-06T07:59:05.295Z,50.63
2017-09-06T08:00:05.102Z,50.63
2017-09-06T08:01:05.121Z,56.25
2017-09-06T08:02:05.165Z,67.50
2017-09-06T08:03:05.209Z,67.50
2017-09-06T08:04:05.496Z,73.13
2017-09-06T08:05:05.368Z,78.75
2017-09-06T08:06:05.302Z,90.00
2017-09-06T08:07:05.337Z,73.13
2017-09-06T08:08:05.373Z,78.75
2017-09-06T08:09:05.437Z,78.75
2017-09-06T08:10:05.447Z,90.00
2017-09-06T08:11:05.729Z,95.63
2017-09-06T08:12:05.547Z,84.38
2017-09-06T08:13:05.552Z,84.38
2017-09-06T08:14:05.616Z,84.38
2017-09-06T08:15:05.644Z,95.63
2017-09-06T08:16:05.685Z,73.13
2017-09-06T08:17:05.714Z,56.25
2017-09-06T08:18:05.989Z,56.25
2017-09-06T08:19:05.795Z,45.00
2017-09-06T08:20:05.822Z,39.38
2017-09-06T08:21:05.872Z,39.38
2017-09-06T08:22:05.886Z,33.75
2017-09-06T08:23:05.929Z,45.00
2017-09-06T08:24:05.952Z,50.63
2017-09-06T08:25:06.298Z,78.75
2017-09-06T08:26:06.034Z,101.25
2017-09-06T08:27:06.078Z,118.13
2017-09-06T08:28:06.121Z,118.13
2017-09-06T08:29:06.153Z,129.38
2017-09-06T08:30:06.186Z,101.25
2017-09-06T08:31:06.210Z,112.50
2017-09-06T08:32:06.566Z,123.75
2017-09-06T08:33:06.279Z,118.13
2017-09-06T08:34:06.312Z,135.00
2017-09-06T08:35:06.375Z,123.75
2017-09-06T08:36:06.387Z,135.00
2017-09-06T08:37:06.429Z,135.00
2017-09-06T08:38:06.470Z,118.13
2017-09-06T08:39:06.804Z,118.13
2017-09-06T08:40:06.552Z,112.50
2017-09-06T08:41:06.588Z,90.00
2017-09-06T08:42:06.611Z,84.38
2017-09-06T08:43:06.660Z,84.38
2017-09-06T08:44:06.698Z,123.75
2017-09-06T08:45:06.714Z,129.38
2017-09-06T08:46:07.067Z,112.50
2017-09-06T08:47:06.812Z,84.38
2017-09-06T08:48:06.840Z,106.88
2017-09-06T08:49:06.886Z,140.63
2017-09-06T08:50:06.901Z,151.88
2017-09-06T08:51:06.949Z,118.13
2017-09-06T08:52:07.168Z,146.25
2017-09-06T08:53:07.273Z,146.25
2017-09-06T08:54:07.085Z,112.50
2017-09-06T08:55:07.094Z,118.13
2017-09-06T08:56:07.142Z,106.88
2017-09-06T08:57:07.155Z,129.38
2017-09-06T08:58:07.212Z,135.00
2017-09-06T08:59:07.225Z,123.75
2017-09-06T09:00:07.530Z,118.13
2017-09-06T09:01:07.321Z,129.38
2017-09-06T09:02:07.381Z,129.38
2017-09-06T09:03:07.389Z,140.63
2017-09-06T09:04:07.406Z,129.38
2017-09-06T09:05:07.445Z,112.50
2017-09-06T09:06:07.499Z,101.25
2017-09-06T09:07:07.766Z,129.38
2017-09-06T09:08:07.698Z,140.63
2017-09-06T09:09:07.589Z,140.63
2017-09-06T09:10:07.626Z,135.00
2017-09-06T09:11:07.690Z,129.38
2017-09-06T09:12:07.699Z,112.50
2017-09-06T09:13:07.757Z,123.75
2017-09-06T09:14:08.072Z,151.88
2017-09-06T09:15:07.827Z,180.00
2017-09-06T09:16:07.870Z,185.63
2017-09-06T09:17:07.901Z,185.63
2017-09-06T09:18:07.963Z,163.13
2017-09-06T09:19:07.974Z,140.63
2017-09-06T09:20:08.298Z,129.38
2017-09-06T09:21:08.031Z,112.50
2017-09-06T09:22:08.080Z,95.63
2017-09-06T09:23:08.107Z,84.38
2017-09-06T09:24:08.148Z,78.75
2017-09-06T09:25:08.225Z,101.25
2017-09-06T09:26:08.529Z,106.88
2017-09-06T09:27:08.272Z,118.13
2017-09-06T09:28:08.308Z,129.38
2017-09-06T09:29:08.322Z,106.88
2017-09-06T09:30:08.476Z,90.00
2017-09-06T09:31:08.399Z,101.25
2017-09-06T09:32:08.685Z,123.75
2017-09-06T09:33:08.489Z,118.13
2017-09-06T09:34:08.523Z,95.63
2017-09-06T09:35:08.564Z,101.25
2017-09-06T09:36:08.578Z,106.88
2017-09-06T09:37:08.614Z,123.75
2017-09-06T09:38:08.953Z,123.75
2017-09-06T09:39:08.711Z,129.38
2017-09-06T09:40:08.744Z,123.75
2017-09-06T09:41:08.864Z,123.75
2017-09-06T09:42:08.801Z,163.13
2017-09-06T09:43:08.846Z,168.75
2017-09-06T09:44:09.173Z,168.75
2017-09-06T09:45:08.939Z,168.75
2017-09-06T09:46:08.942Z,157.50
2017-09-06T09:47:09.100Z,157.50
2017-09-06T09:48:09.037Z,163.13
2017-09-06T09:49:09.075Z,157.50
2017-09-06T09:50:09.394Z,157.50
2017-09-06T09:51:09.145Z,168.75
2017-09-06T09:52:09.199Z,168.75
2017-09-06T09:53:09.208Z,168.75
2017-09-06T09:54:09.275Z,163.13
2017-09-06T09:55:09.328Z,140.63
2017-09-06T09:56:09.590Z,123.75
2017-09-06T09:57:09.352Z,118.13
2017-09-06T09:58:09.403Z,118.13
2017-09-06T09:59:09.454Z,112.50
2017-09-06T10:00:09.460Z,106.88
2017-09-06T10:01:09.653Z,118.13
2017-09-06T10:02:09.808Z,118.13
2017-09-06T10:03:09.619Z,129.38
2017-09-06T10:04:09.611Z,151.88
2017-09-06T10:05:09.663Z,174.38
2017-09-06T10:06:09.787Z,191.25
2017-09-06T10:07:09.725Z,191.25
2017-09-06T10:08:10.005Z,180.00
2017-09-06T10:09:09.814Z,157.50
2017-09-06T10:10:09.834Z,140.63
2017-09-06T10:11:09.882Z,157.50
2017-09-06T10:12:09.912Z,185.63
2017-09-06T10:13:09.951Z,180.00
2017-09-06T10:14:10.329Z,180.00
2017-09-06T10:15:10.036Z,174.38
2017-09-06T10:16:10.068Z,135.00
2017-09-06T10:17:10.107Z,123.75
2017-09-06T10:18:10.141Z,106.88
2017-09-06T10:19:10.170Z,84.38
2017-09-06T10:20:10.514Z,95.63
2017-09-06T10:21:10.251Z,95.63
2017-09-06T10:22:10.281Z,90.00
2017-09-06T10:23:10.308Z,73.13
2017-09-06T10:24:10.350Z,67.50
2017-09-06T10:25:10.404Z,67.50
2017-09-06T10:26:10.719Z,78.75
2017-09-06T10:27:10.480Z,90.00
2017-09-06T10:28:10.492Z,101.25
2017-09-06T10:29:10.552Z,106.88
2017-09-06T10:30:10.590Z,112.50
2017-09-06T10:31:10.604Z,129.38
2017-09-06T10:32:11.458Z,140.63
2017-09-06T10:33:10.678Z,157.50
2017-09-06T10:34:10.735Z,163.13
2017-09-06T10:35:10.762Z,135.00
2017-09-06T10:36:10.789Z,106.88
2017-09-06T10:37:10.848Z,95.63
2017-09-06T10:38:11.147Z,101.25
2017-09-06T10:39:10.901Z,112.50
2017-09-06T10:40:10.944Z,123.75
2017-09-06T10:41:10.976Z,135.00
2017-09-06T10:42:11.012Z,163.13
2017-09-06T10:43:11.045Z,202.50
2017-09-06T10:44:11.101Z,213.75
2017-09-06T10:45:11.419Z,185.63
2017-09-06T10:46:11.196Z,168.75
2017-09-06T10:47:11.207Z,180.00
2017-09-06T10:48:11.231Z,180.00
2017-09-06T10:49:11.287Z,208.13
2017-09-06T10:50:11.326Z,225.00
2017-09-06T10:51:11.342Z,225.00
2017-09-06T10:52:11.644Z,247.50
2017-09-06T10:53:11.468Z,225.00
2017-09-06T10:54:11.454Z,202.50
2017-09-06T10:55:11.508Z,185.63
2017-09-06T10:56:11.545Z,196.88
2017-09-06T10:57:11.584Z,208.13
2017-09-06T10:58:11.604Z,213.75
2017-09-06T10:59:11.906Z,208.13
2017-09-06T11:00:11.695Z,185.63
2017-09-06T11:01:11.715Z,129.38
2017-09-06T11:02:11.767Z,123.75
2017-09-06T11:03:11.792Z,112.50
2017-09-06T11:04:11.844Z,73.13
2017-09-06T11:05:11.880Z,78.75
2017-09-06T11:06:12.166Z,90.00
2017-09-06T11:07:11.964Z,95.63
2017-09-06T11:08:11.991Z,95.63
2017-09-06T11:09:12.028Z,101.25
2017-09-06T11:10:12.098Z,95.63
2017-09-06T11:11:12.090Z,95.63
2017-09-06T11:12:12.140Z,101.25
2017-09-06T11:13:12.426Z,101.25
2017-09-06T11:14:12.222Z,90.00
2017-09-06T11:15:12.234Z,95.63
2017-09-06T11:16:12.270Z,73.13
2017-09-06T11:17:12.325Z,73.13
2017-09-06T11:18:12.345Z,61.88
2017-09-06T11:19:12.390Z,50.63
2017-09-06T11:20:12.691Z,56.25
2017-09-06T11:21:12.464Z,67.50
2017-09-06T11:22:12.509Z,78.75
2017-09-06T11:23:12.529Z,90.00
2017-09-06T11:24:12.589Z,90.00
2017-09-06T11:25:12.606Z,95.63
2017-09-06T11:26:12.644Z,118.13
2017-09-06T11:27:12.941Z,151.88
2017-09-06T11:28:12.718Z,191.25
2017-09-06T11:29:12.785Z,219.38
2017-09-06T11:30:12.791Z,219.38
2017-09-06T11:31:12.850Z,213.75
2017-09-06T11:32:12.865Z,208.13
2017-09-06T11:33:12.902Z,191.25
2017-09-06T11:34:13.188Z,163.13
2017-09-06T11:35:12.994Z,135.00
2017-09-06T11:36:13.043Z,135.00
2017-09-06T11:37:13.053Z,135.00
2017-09-06T11:38:13.092Z,135.00
2017-09-06T11:39:13.140Z,135.00
2017-09-06T11:40:13.160Z,140.63
2017-09-06T11:41:13.526Z,151.88
2017-09-06T11:42:13.237Z,180.00
2017-09-06T11:43:13.398Z,213.75
2017-09-06T11:44:13.307Z,241.88
2017-09-06T11:45:13.357Z,241.88
2017-09-06T11:46:13.702Z,253.13
2017-09-06T11:47:13.442Z,253.13
2017-09-06T11:48:13.460Z,253.13
2017-09-06T11:49:13.500Z,225.00
2017-09-06T11:50:13.550Z,163.13
2017-09-06T11:51:13.591Z,118.13
2017-09-06T11:52:13.629Z,95.63
2017-09-06T11:53:13.649Z,90.00
2017-09-06T11:54:13.948Z,78.75
2017-09-06T11:55:13.766Z,78.75
2017-09-06T11:56:13.766Z,90.00
2017-09-06T11:57:13.912Z,123.75
2017-09-06T11:58:13.844Z,146.25
2017-09-06T11:59:13.891Z,151.88
2017-09-06T12:00:13.957Z,151.88
2017-09-06T12:01:14.203Z,185.63
2017-09-06T12:02:14.059Z,196.88
2017-09-06T12:03:14.114Z,196.88
2017-09-06T12:04:14.092Z,213.75
2017-09-06T12:05:14.110Z,225.00
2017-09-06T12:06:14.132Z,225.00
2017-09-06T12:07:14.436Z,241.88
2017-09-06T12:08:14.324Z,264.38
2017-09-06T12:09:14.268Z,281.25
2017-09-06T12:10:14.304Z,247.50
2017-09-06T12:11:14.339Z,230.63
2017-09-06T12:12:14.373Z,230.63
2017-09-06T12:13:14.399Z,225.00
2017-09-06T12:14:14.465Z,219.38
2017-09-06T12:15:14.469Z,196.88
2017-09-06T12:16:14.526Z,157.50
2017-09-06T12:17:14.544Z,163.13
2017-09-06T12:18:14.606Z,174.38
2017-09-06T12:19:14.963Z,191.25
2017-09-06T12:20:14.661Z,208.13
2017-09-06T12:21:14.765Z,213.75
2017-09-06T12:22:14.756Z,225.00
2017-09-06T12:23:14.773Z,213.75
2017-09-06T12:24:14.804Z,208.13
2017-09-06T12:25:15.142Z,191.25
2017-09-06T12:26:14.889Z,163.13
2017-09-06T12:27:14.922Z,157.50
2017-09-06T12:28:14.975Z,163.13
2017-09-06T12:29:15.016Z,174.38
2017-09-06T12:30:15.030Z,174.38
2017-09-06T12:31:15.319Z,163.13
2017-09-06T12:32:15.122Z,163.13
2017-09-06T12:33:15.147Z,146.25
2017-09-06T12:34:15.282Z,123.75
2017-09-06T12:35:15.243Z,123.75
2017-09-06T12:36:15.279Z,123.75
2017-09-06T12:37:15.546Z,123.75
2017-09-06T12:38:15.349Z,129.38
2017-09-06T12:39:15.397Z,118.13
2017-09-06T12:40:15.410Z,112.50
2017-09-06T12:41:15.452Z,112.50
2017-09-06T12:42:15.486Z,112.50
2017-09-06T12:43:15.792Z,123.75
2017-09-06T12:44:15.582Z,140.63
2017-09-06T12:45:15.616Z,157.50
2017-09-06T12:46:15.646Z,174.38
2017-09-06T12:47:15.730Z,196.88
2017-09-06T12:48:15.729Z,219.38
2017-09-06T12:49:16.080Z,241.88
2017-09-06T12:50:15.803Z,253.13
2017-09-06T12:51:15.841Z,225.00
2017-09-06T12:52:15.987Z,202.50
2017-09-06T12:53:15.924Z,163.13
2017-09-06T12:54:15.957Z,123.75
2017-09-06T12:55:16.296Z,101.25
2017-09-06T12:56:16.031Z,73.13